Time;durP1;ratioP1;P1;durP2;ratioP2;P2;SDS_P1;SDS_P2;PMS_P1;PMS_P2;Temp;Humidity;BMP_temperature;BMP_pressure;BME280_temperature;BME280_humidity;BME280_pressure;Samples;Min_cycle;Max_cycle;Signal;HPM_P1;HPM_P2
2023/05/08 00:01:44;;;;;;;23.13;14.40;;;;;;;15.64;92.18;100273.63;5064528;28;20082;-76
2023/05/08 00:04:09;;;;;;;21.50;13.80;;;;;;;15.62;92.53;100280.53;5063922;28;20668;-75
2023/05/08 00:06:35;;;;;;;21.97;14.87;;;;;;;15.55;92.72;100277.28;5067682;28;20292;-76
2023/05/08 00:09:00;;;;;;;23.00;15.03;;;;;;;15.52;92.87;100279.47;5068061;28;20821;-76
2023/05/08 00:11:25;;;;;;;24.60;15.77;;;;;;;15.46;92.81;100283.38;5067991;28;20327;-76
2023/05/08 00:13:50;;;;;;;24.00;16.30;;;;;;;15.43;92.68;100277.63;5067668;28;20890;-76
2023/05/08 00:16:16;;;;;;;27.50;17.20;;;;;;;15.34;92.56;100280.97;5067729;28;20040;-75
2023/05/08 00:18:41;;;;;;;32.22;19.73;;;;;;;15.31;92.93;100275.25;5068158;28;20883;-76
2023/05/08 00:21:06;;;;;;;31.97;18.97;;;;;;;15.29;93.00;100279.06;5068023;28;20603;-76
2023/05/08 00:23:32;;;;;;;33.78;21.58;;;;;;;15.29;93.17;100283.78;5067870;28;20281;-76
2023/05/08 00:25:58;;;;;;;30.67;16.98;;;;;;;15.32;93.06;100276.88;5067157;28;20045;-76
2023/05/08 00:28:23;;;;;;;27.02;17.83;;;;;;;15.34;92.53;100280.97;5067436;28;20029;-76
2023/05/08 00:30:49;;;;;;;32.95;20.95;;;;;;;15.31;92.52;100277.97;5066969;28;20055;-76
2023/05/08 00:33:14;;;;;;;26.65;18.55;;;;;;;15.36;92.58;100278.75;5067588;28;20123;-75
2023/05/08 00:35:42;;;;;;;29.58;18.58;;;;;;;15.36;92.12;100278.75;5067147;28;20613;-76
2023/05/08 00:38:08;;;;;;;29.50;17.40;;;;;;;15.31;92.24;100277.97;5067608;28;20074;-76
2023/05/08 00:40:34;;;;;;;29.42;20.15;;;;;;;15.32;92.15;100274.13;5065858;28;20044;-76
2023/05/08 00:42:59;;;;;;;27.27;16.55;;;;;;;15.29;91.80;100284.56;5067141;28;20035;-76
2023/05/08 00:45:38;;;;;;;28.73;18.30;;;;;;;15.28;92.08;100277.44;5066497;28;20036;-76
2023/05/08 00:48:03;;;;;;;28.40;17.55;;;;;;;15.32;91.87;100280.44;5067449;28;20025;-76
2023/05/08 00:50:30;;;;;;;28.42;16.48;;;;;;;15.31;91.64;100281.56;5066782;28;20039;-76
2023/05/08 00:52:57;;;;;;;28.23;18.33;;;;;;;15.29;91.26;100281.81;5067406;28;20393;-76
2023/05/08 00:55:23;;;;;;;28.27;16.92;;;;;;;15.33;91.24;100278.53;5066102;28;20040;-76
2023/05/08 00:57:49;;;;;;;30.98;18.13;;;;;;;15.32;91.00;100285.09;5067007;28;20059;-76
2023/05/08 01:00:18;;;;;;;30.10;19.38;;;;;;;15.28;90.98;100282.94;5066967;28;20489;-76
2023/05/08 01:02:44;;;;;;;37.92;19.58;;;;;;;15.25;90.94;100283.53;5067278;28;20392;-76
2023/05/08 01:05:10;;;;;;;29.63;19.35;;;;;;;15.22;91.01;100280.50;5066155;28;20090;-76
2023/05/08 01:07:35;;;;;;;27.92;18.60;;;;;;;15.24;90.91;100281.03;5067047;28;20687;-76
2023/05/08 01:10:01;;;;;;;28.73;18.60;;;;;;;15.22;90.80;100278.56;5066578;28;20036;-76
2023/05/08 01:13:05;;;;;;;27.48;17.52;;;;;;;15.23;90.75;100274.75;5066808;28;20474;-75
2023/05/08 01:15:49;;;;;;;29.50;18.30;;;;;;;15.21;91.06;100271.47;5066161;28;20032;-76
2023/05/08 01:18:26;;;;;;;27.17;17.70;;;;;;;15.16;91.48;100275.03;5066346;28;20500;-76
2023/05/08 01:21:11;;;;;;;32.72;17.20;;;;;;;15.16;91.70;100272.31;5066499;28;20109;-75
2023/05/08 01:24:13;;;;;;;30.25;17.85;;;;;;;15.17;91.24;100282.16;5065302;28;21262;-76
2023/05/08 01:27:00;;;;;;;29.73;16.27;;;;;;;15.16;91.65;100279.72;5066192;28;20139;-76
2023/05/08 01:29:39;;;;;;;26.73;17.67;;;;;;;15.14;91.75;100285.50;5065925;28;20089;-75
2023/05/08 01:32:09;;;;;;;29.20;17.85;;;;;;;15.19;91.65;100286.56;5066120;28;20395;-76
2023/05/08 01:34:41;;;;;;;28.17;17.83;;;;;;;15.15;92.01;100283.56;5066243;28;20037;-76
2023/05/08 01:37:13;;;;;;;28.80;16.70;;;;;;;15.13;92.08;100285.78;5066654;28;20059;-76
2023/05/08 01:39:50;;;;;;;27.92;15.98;;;;;;;15.09;92.00;100280.03;5065896;28;20028;-76
2023/05/08 01:42:27;;;;;;;36.63;19.50;;;;;;;15.04;91.87;100286.38;5064574;28;20144;-76
2023/05/08 01:44:58;;;;;;;32.67;18.92;;;;;;;15.01;92.29;100284.16;5065872;28;20041;-75
2023/05/08 01:47:28;;;;;;;27.88;18.85;;;;;;;15.03;92.11;100281.97;5065943;28;20060;-76
2023/05/08 01:50:03;;;;;;;30.83;21.27;;;;;;;15.05;91.94;100285.25;5064787;28;20035;-76
2023/05/08 01:52:42;;;;;;;30.60;18.90;;;;;;;15.00;91.96;100276.22;5065695;28;20047;-76
2023/05/08 01:55:11;;;;;;;32.92;18.55;;;;;;;14.92;91.95;100286.69;5065822;28;20040;-77
2023/05/08 01:57:42;;;;;;;33.33;19.50;;;;;;;14.91;92.40;100285.03;5066292;28;20027;-75
2023/05/08 02:00:08;;;;;;;32.40;19.05;;;;;;;14.90;92.82;100285.34;5065606;28;20070;-76
2023/05/08 02:02:34;;;;;;;33.33;19.65;;;;;;;14.94;92.54;100290.00;5065801;28;20032;-75
2023/05/08 02:05:03;;;;;;;27.02;16.50;;;;;;;14.95;92.03;100282.56;5065745;28;20064;-75
2023/05/08 02:07:30;;;;;;;30.02;17.27;;;;;;;14.90;91.89;100293.56;5065594;28;20044;-76
2023/05/08 02:09:56;;;;;;;27.98;19.70;;;;;;;14.90;91.40;100288.06;5066884;28;20016;-74
2023/05/08 02:12:24;;;;;;;29.63;18.13;;;;;;;14.86;91.88;100289.75;5065682;28;20572;-74
2023/05/08 02:14:52;;;;;;;32.70;19.60;;;;;;;14.85;91.76;100296.34;5063899;28;20061;-75
2023/05/08 02:17:18;;;;;;;26.92;16.60;;;;;;;14.86;91.91;100297.97;5065693;28;20054;-74
2023/05/08 02:19:44;;;;;;;35.53;19.70;;;;;;;14.88;91.88;100293.03;5065569;28;20024;-74
2023/05/08 02:22:12;;;;;;;32.65;20.77;;;;;;;14.89;92.15;100294.69;5065225;28;21243;-74
2023/05/08 02:24:38;;;;;;;29.92;17.65;;;;;;;14.91;92.56;100296.03;5065014;28;20155;-75
2023/05/08 02:27:05;;;;;;;29.00;17.92;;;;;;;14.96;92.60;100297.94;5065667;28;20063;-74
2023/05/08 02:29:31;;;;;;;30.15;17.88;;;;;;;15.01;92.07;100306.13;5064813;28;20370;-74
2023/05/08 02:31:57;;;;;;;31.33;17.92;;;;;;;14.98;92.17;100294.91;5065634;28;20035;-74
2023/05/08 02:34:24;;;;;;;32.70;18.60;;;;;;;14.97;92.47;100298.75;5064829;28;20167;-75
2023/05/08 02:36:52;;;;;;;28.67;20.50;;;;;;;14.93;92.60;100304.81;5064993;28;20142;-75
2023/05/08 02:39:20;;;;;;;31.05;18.33;;;;;;;14.89;92.84;100302.91;5064939;28;20040;-74
2023/05/08 02:41:46;;;;;;;30.70;19.85;;;;;;;14.87;92.96;100300.44;5065689;28;20048;-74
2023/05/08 02:44:11;;;;;;;37.95;19.45;;;;;;;14.90;93.13;100310.03;5065213;28;20040;-74
2023/05/08 02:47:07;;;;;;;29.48;19.23;;;;;;;14.89;92.19;100308.41;5064814;28;20025;-75
2023/05/08 02:49:50;;;;;;;31.83;19.27;;;;;;;14.87;92.14;100316.91;5064686;28;20132;-75
2023/05/08 02:52:43;;;;;;;33.95;20.50;;;;;;;14.76;92.69;100316.09;5065353;28;20032;-75
2023/05/08 02:55:33;;;;;;;27.73;19.88;;;;;;;14.77;92.96;100312.25;5064697;28;20065;-74
2023/05/08 02:58:21;;;;;;;27.08;17.25;;;;;;;14.82;92.00;100308.66;5063557;28;20036;-74
2023/05/08 03:00:55;;;;;;;26.10;17.83;;;;;;;14.79;91.48;100310.03;5065071;28;20039;-74
2023/05/08 03:03:23;;;;;;;;;;;;;;;14.63;91.61;100305.69;5065034;28;20033;-74
2023/05/08 03:05:53;;;;;;;32.53;19.73;;;;;;;14.66;91.61;100308.72;5064748;28;19916;-75
2023/05/08 03:08:24;;;;;;;30.90;19.33;;;;;;;14.68;91.81;100308.44;5065271;28;20037;-75
2023/05/08 03:10:52;;;;;;;27.73;17.75;;;;;;;14.66;91.70;100303.25;5065093;28;20056;-74
2023/05/08 03:13:19;;;;;;;29.40;19.75;;;;;;;14.66;91.53;100305.16;5064576;28;20032;-74
2023/05/08 03:15:51;;;;;;;33.45;20.08;;;;;;;14.63;91.59;100300.22;5064820;28;20043;-74
2023/05/08 03:18:19;;;;;;;28.98;18.35;;;;;;;14.58;91.56;100303.81;5064996;28;20032;-75
2023/05/08 03:20:48;;;;;;;32.67;19.80;;;;;;;14.53;91.71;100310.13;5064881;28;20045;-75
2023/05/08 03:23:15;;;;;;;31.42;20.83;;;;;;;14.54;91.94;100306.28;5064239;28;20029;-74
2023/05/08 03:25:42;;;;;;;35.40;20.00;;;;;;;14.47;92.03;100303.00;5064369;28;20048;-75
2023/05/08 03:28:09;;;;;;;37.47;22.02;;;;;;;14.46;92.13;100306.88;5063291;28;20040;-73
2023/05/08 03:30:36;;;;;;;34.08;20.65;;;;;;;14.47;92.31;100316.72;5064324;28;20047;-74
2023/05/08 03:33:06;;;;;;;32.42;19.35;;;;;;;14.46;91.90;100312.34;5064638;28;20623;-74
2023/05/08 03:35:35;;;;;;;30.27;20.30;;;;;;;14.47;91.95;100309.31;5063414;28;20836;-74
2023/05/08 03:38:00;;;;;;;35.40;23.10;;;;;;;14.46;92.20;100307.66;5064887;28;20029;-74
2023/05/08 03:40:26;;;;;;;37.33;22.88;;;;;;;14.40;92.33;100307.97;5065757;28;20567;-74
2023/05/08 03:42:52;;;;;;;39.95;22.55;;;;;;;14.31;92.84;100305.78;5068842;28;20039;-74
2023/05/08 03:45:18;;;;;;;35.05;20.10;;;;;;;14.38;92.98;100300.00;5067920;28;20036;-74
2023/05/08 03:47:46;;;;;;;31.00;20.35;;;;;;;14.40;92.99;100299.75;5067169;28;20032;-74
2023/05/08 03:50:12;;;;;;;43.67;23.85;;;;;;;14.38;92.75;100299.19;5068140;28;20089;-74
2023/05/08 03:52:37;;;;;;;31.02;19.75;;;;;;;14.36;92.25;100300.28;5068003;28;20676;-74
2023/05/08 03:55:03;;;;;;;33.45;21.02;;;;;;;14.42;92.96;100292.84;5067731;28;20039;-74
2023/05/08 03:57:47;;;;;;;31.55;21.60;;;;;;;14.44;92.53;100293.41;5066475;28;20538;-74
2023/05/08 04:00:21;;;;;;;33.92;20.95;;;;;;;14.42;92.84;100286.56;5067919;28;21244;-76
2023/05/08 04:02:55;;;;;;;36.00;21.10;;;;;;;14.42;93.02;100284.63;5068267;28;20115;-75
2023/05/08 04:05:26;;;;;;;32.47;20.35;;;;;;;14.40;93.17;100286.03;5067722;28;20040;-74
2023/05/08 04:07:59;;;;;;;30.35;18.67;;;;;;;14.45;93.50;100286.00;5066863;28;20086;-74
2023/05/08 04:10:36;;;;;;;29.93;17.97;;;;;;;14.44;93.42;100293.41;5067570;28;20093;-74
2023/05/08 04:13:07;;;;;;;31.98;18.17;;;;;;;14.55;93.36;100299.69;5068599;28;20187;-74
2023/05/08 04:15:37;;;;;;;27.23;15.98;;;;;;;14.65;93.35;100298.00;5067931;28;20133;-74
2023/05/08 04:18:09;;;;;;;21.23;15.98;;;;;;;14.67;93.20;100293.06;5067822;28;20036;-74
2023/05/08 04:20:39;;;;;;;23.67;14.10;;;;;;;14.69;93.08;100304.59;5067775;28;20037;-74
2023/05/08 04:23:05;;;;;;;20.95;12.45;;;;;;;14.71;93.48;100307.88;5068042;28;20090;-75
2023/05/08 04:25:34;;;;;;;25.13;14.65;;;;;;;14.73;93.20;100299.34;5067829;28;20132;-74
2023/05/08 04:28:01;;;;;;;21.88;14.07;;;;;;;14.70;93.37;100303.50;5067758;28;20078;-75
2023/05/08 04:30:27;;;;;;;20.73;12.48;;;;;;;14.71;93.35;100308.69;5068201;28;20604;-75
2023/05/08 04:32:53;;;;;;;21.17;12.80;;;;;;;14.73;93.40;100305.66;5068115;28;20809;-74
2023/05/08 04:35:18;;;;;;;19.80;12.70;;;;;;;14.74;93.28;100310.06;5067076;28;20139;-74
2023/05/08 04:37:45;;;;;;;21.50;11.55;;;;;;;14.72;93.47;100312.28;5067908;28;20113;-74
2023/05/08 04:40:10;;;;;;;19.63;11.88;;;;;;;14.74;93.46;100312.00;5067326;28;20090;-74
2023/05/08 04:42:37;;;;;;;21.55;12.98;;;;;;;14.76;93.32;100313.34;5067885;28;20024;-74
2023/05/08 04:45:03;;;;;;;21.88;11.80;;;;;;;14.79;93.41;100310.03;5067241;28;20037;-75
2023/05/08 04:47:28;;;;;;;17.45;11.55;;;;;;;14.79;93.87;100310.03;5067319;28;20033;-74
2023/05/08 04:49:53;;;;;;;23.90;12.95;;;;;;;14.80;93.53;100308.13;5067171;28;20086;-75
2023/05/08 04:52:19;;;;;;;22.47;13.77;;;;;;;14.81;93.65;100312.50;5066920;28;20115;-74
2023/05/08 04:54:44;;;;;;;20.80;12.85;;;;;;;14.82;94.08;100309.50;5067384;28;20658;-74
2023/05/08 04:57:10;;;;;;;23.20;13.15;;;;;;;14.86;93.95;100315.28;5066787;28;20024;-74
2023/05/08 04:59:35;;;;;;;18.70;11.40;;;;;;;14.89;94.15;100319.38;5065464;28;20028;-74
2023/05/08 05:02:01;;;;;;;22.00;12.32;;;;;;;14.97;93.84;100326.22;5067437;28;20024;-74
2023/05/08 05:04:27;;;;;;;20.08;10.57;;;;;;;15.02;93.28;100329.75;5066370;28;20028;-73
2023/05/08 05:06:52;;;;;;;21.27;12.80;;;;;;;15.09;93.60;100328.63;5067271;28;20055;-75
2023/05/08 05:09:17;;;;;;;16.02;10.13;;;;;;;15.16;93.29;100340.97;5066348;28;20032;-75
2023/05/08 05:11:43;;;;;;;19.40;11.95;;;;;;;15.23;93.20;100351.66;5066356;28;20055;-75
2023/05/08 05:14:08;;;;;;;27.83;17.63;;;;;;;15.29;93.15;100350.47;5066318;28;20032;-75
2023/05/08 05:16:33;;;;;;;32.73;18.30;;;;;;;15.27;93.23;100349.16;5066835;28;20036;-74
2023/05/08 05:18:59;;;;;;;30.27;17.50;;;;;;;15.29;93.25;100345.00;5066453;28;20311;-74
2023/05/08 05:21:24;;;;;;;23.60;16.17;;;;;;;15.31;92.97;100342.00;5066451;28;20051;-75
2023/05/08 05:23:50;;;;;;;22.08;13.45;;;;;;;15.35;93.56;100342.25;5064904;28;21560;-75
2023/05/08 05:26:16;;;;;;;28.00;13.20;;;;;;;15.42;93.08;100342.72;5064889;28;20024;-75
2023/05/08 05:28:41;;;;;;;34.53;15.35;;;;;;;15.48;93.03;100343.53;5066063;28;20115;-75
2023/05/08 05:31:06;;;;;;;21.67;14.57;;;;;;;15.52;92.52;100342.69;5066697;28;20055;-75
2023/05/08 05:33:32;;;;;;;28.17;18.30;;;;;;;15.59;92.30;100347.88;5066559;28;20253;-74
2023/05/08 05:35:58;;;;;;;28.00;16.25;;;;;;;15.60;91.67;100351.44;5066311;28;20485;-75
2023/05/08 05:38:23;;;;;;;25.20;15.75;;;;;;;15.62;91.93;100352.78;5066853;28;20612;-74
2023/05/08 05:40:48;;;;;;;30.08;15.05;;;;;;;15.62;92.13;100357.47;5066687;28;20052;-74
2023/05/08 05:43:13;;;;;;;22.58;14.27;;;;;;;15.67;92.05;100354.69;5066331;28;20037;-75
2023/05/08 05:45:39;;;;;;;22.40;14.03;;;;;;;15.72;91.91;100362.88;5066100;28;20067;-74
2023/05/08 05:48:04;;;;;;;23.23;11.40;;;;;;;15.66;92.10;100358.56;5066153;28;20304;-74
2023/05/08 05:50:30;;;;;;;23.80;12.82;;;;;;;15.69;91.95;100357.13;5064430;28;20028;-74
2023/05/08 05:52:55;;;;;;;25.20;13.13;;;;;;;15.73;91.85;100364.53;5066750;28;20086;-75
2023/05/08 05:55:21;;;;;;;18.97;12.60;;;;;;;15.76;92.13;100361.22;5065298;28;20041;-74
2023/05/08 05:57:47;;;;;;;18.75;10.43;;;;;;;15.81;91.51;100367.78;5065961;28;21587;-74
2023/05/08 06:00:12;;;;;;;18.65;11.60;;;;;;;15.82;91.17;100363.94;5064942;28;20792;-75
2023/05/08 06:02:38;;;;;;;18.40;10.82;;;;;;;15.84;91.32;100364.47;5063822;28;20470;-74
2023/05/08 06:05:03;;;;;;;21.65;10.35;;;;;;;15.92;91.04;100366.63;5065389;28;20046;-75
2023/05/08 06:07:29;;;;;;;12.88;7.03;;;;;;;15.87;90.75;100366.63;5065967;28;20028;-74
2023/05/08 06:09:55;;;;;;;11.00;6.43;;;;;;;15.90;90.32;100365.25;5065818;28;20051;-75
2023/05/08 06:12:21;;;;;;;12.05;7.30;;;;;;;15.96;89.93;100367.69;5065719;28;20074;-74
2023/05/08 06:14:46;;;;;;;20.63;8.68;;;;;;;16.04;89.88;100362.69;5065080;28;20146;-74
2023/05/08 06:17:11;;;;;;;14.05;8.45;;;;;;;16.03;89.87;100366.56;5065871;28;20041;-74
2023/05/08 06:19:36;;;;;;;11.53;7.57;;;;;;;16.09;89.76;100362.66;5065951;28;20081;-75
2023/05/08 06:22:02;;;;;;;13.03;7.67;;;;;;;16.15;89.59;100369.75;5065499;28;20695;-75
2023/05/08 06:24:27;;;;;;;12.05;6.63;;;;;;;16.24;89.44;100355.38;5064450;28;20273;-75
2023/05/08 06:26:53;;;;;;;18.35;7.47;;;;;;;16.31;89.22;100367.69;5065566;28;20040;-75
2023/05/08 06:29:18;;;;;;;12.70;6.87;;;;;;;16.33;89.37;100368.22;5065425;28;20104;-75
2023/05/08 06:31:43;;;;;;;10.38;6.40;;;;;;;16.33;88.94;100361.91;5065869;28;20349;-74
2023/05/08 06:34:09;;;;;;;13.43;6.80;;;;;;;16.35;89.07;100370.69;5065217;28;20515;-75
2023/05/08 06:36:35;;;;;;;10.73;6.38;;;;;;;16.33;89.02;100361.91;5065515;28;20262;-74
2023/05/08 06:39:00;;;;;;;9.88;7.25;;;;;;;16.36;89.14;100358.56;5064179;28;20119;-74
2023/05/08 06:41:26;;;;;;;17.95;6.47;;;;;;;16.40;88.54;100359.63;5064871;28;20167;-75
2023/05/08 06:43:51;;;;;;;11.63;6.87;;;;;;;16.38;88.88;100361.03;5065083;28;20040;-74
2023/05/08 06:46:16;;;;;;;10.20;6.90;;;;;;;16.43;88.45;100355.50;5064986;28;20308;-75
2023/05/08 06:48:42;;;;;;;12.02;6.20;;;;;;;16.48;88.07;100360.94;5065281;28;20261;-74
2023/05/08 06:51:07;;;;;;;11.43;6.37;;;;;;;16.50;88.18;100363.38;5065129;28;20044;-74
2023/05/08 06:53:32;;;;;;;9.77;5.97;;;;;;;16.51;88.43;100368.63;5065471;28;20249;-74
2023/05/08 06:55:57;;;;;;;12.77;7.03;;;;;;;16.43;88.61;100372.81;5065052;28;20295;-74
2023/05/08 06:58:23;;;;;;;10.02;6.30;;;;;;;16.36;88.58;100368.75;5065475;28;20276;-75
2023/05/08 07:00:49;;;;;;;10.30;6.78;;;;;;;16.45;88.52;100367.84;5065186;28;20032;-75
2023/05/08 07:03:15;;;;;;;8.50;5.30;;;;;;;16.47;88.30;100364.81;5064908;28;20032;-74
2023/05/08 07:05:40;;;;;;;10.80;6.53;;;;;;;16.56;87.95;100356.72;5064713;28;20503;-75
2023/05/08 07:08:05;;;;;;;11.15;7.60;;;;;;;16.62;87.98;100361.06;5065281;28;20039;-75
2023/05/08 07:10:32;;;;;;;7.53;5.17;;;;;;;16.62;87.75;100360.28;5064949;28;21174;-75
2023/05/08 07:12:57;;;;;;;11.48;5.68;;;;;;;16.63;87.71;100351.72;5065108;28;20273;-75
2023/05/08 07:15:22;;;;;;;9.73;6.38;;;;;;;16.69;87.36;100355.22;5067638;28;20036;-74
2023/05/08 07:17:48;;;;;;;10.00;7.03;;;;;;;16.58;87.80;100357.25;5067990;28;20127;-75
2023/05/08 07:20:13;;;;;;;8.17;5.57;;;;;;;16.62;87.64;100363.81;5068969;28;20056;-74
2023/05/08 07:22:38;;;;;;;13.30;8.68;;;;;;;16.56;88.07;100362.22;5069107;28;20280;-75
2023/05/08 07:25:04;;;;;;;10.90;6.20;;;;;;;16.62;87.43;100354.75;5068929;28;20028;-75
2023/05/08 07:27:30;;;;;;;10.68;6.47;;;;;;;16.68;87.25;100357.16;5066990;28;20120;-75
2023/05/08 07:29:57;;;;;;;16.48;6.57;;;;;;;16.64;87.24;100352.50;5069467;28;20085;-74
2023/05/08 07:32:22;;;;;;;10.77;7.45;;;;;;;16.66;87.55;100355.78;5068593;28;20053;-74
2023/05/08 07:34:48;;;;;;;9.52;6.20;;;;;;;16.71;87.88;100352.19;5067027;28;20032;-74
2023/05/08 07:37:13;;;;;;;8.50;5.45;;;;;;;16.68;87.70;100354.41;5068135;28;20060;-75
2023/05/08 07:39:38;;;;;;;9.90;5.87;;;;;;;16.75;87.51;100356.00;5068906;28;20032;-75
2023/05/08 07:42:03;;;;;;;9.85;5.88;;;;;;;16.83;87.10;100366.38;5068066;28;20297;-75
2023/05/08 07:44:32;;;;;;;11.30;6.93;;;;;;;16.96;86.69;100369.53;5067887;28;20124;-75
2023/05/08 07:46:57;;;;;;;10.07;6.78;;;;;;;16.98;86.25;100378.31;5068686;28;20865;-75
2023/05/08 07:49:23;;;;;;;9.82;5.45;;;;;;;17.06;85.85;100379.59;5068560;28;20028;-75
2023/05/08 07:51:48;;;;;;;10.45;5.88;;;;;;;17.08;85.69;100377.38;5068538;28;20029;-75
2023/05/08 07:54:14;;;;;;;8.50;5.00;;;;;;;17.09;85.35;100385.34;5067548;28;20066;-74
2023/05/08 07:56:39;;;;;;;11.00;5.53;;;;;;;17.18;84.68;100390.22;5068540;28;20033;-74
2023/05/08 07:59:04;;;;;;;17.60;6.78;;;;;;;17.24;84.96;100394.56;5068276;28;20090;-75
2023/05/08 08:01:30;;;;;;;12.53;6.57;;;;;;;17.23;84.89;100390.16;5068195;28;20028;-74
2023/05/08 08:03:55;;;;;;;11.98;6.82;;;;;;;17.25;85.15;100398.94;5068418;28;20639;-75
2023/05/08 08:06:20;;;;;;;9.60;6.07;;;;;;;17.30;85.24;100398.91;5067598;28;20032;-75
2023/05/08 08:08:45;;;;;;;10.40;6.47;;;;;;;17.30;85.05;100400.81;5068738;28;20762;-75
2023/05/08 08:11:11;;;;;;;11.90;6.53;;;;;;;17.24;85.03;100398.16;5068019;28;20071;-74
2023/05/08 08:13:36;;;;;;;13.45;8.02;;;;;;;17.24;84.95;100402.84;5068649;28;20040;-75
2023/05/08 08:16:03;;;;;;;8.70;5.50;;;;;;;17.22;84.70;100399.56;5067893;28;20060;-74
2023/05/08 08:18:28;;;;;;;8.60;5.60;;;;;;;17.12;84.57;100401.31;5068234;28;20256;-75
2023/05/08 08:20:54;;;;;;;9.50;5.65;;;;;;;17.07;84.85;100393.06;5067835;28;20032;-74
2023/05/08 08:23:19;;;;;;;7.75;4.63;;;;;;;17.08;84.30;100404.91;5066536;28;20078;-74
2023/05/08 08:25:44;;;;;;;11.43;6.77;;;;;;;17.06;84.51;100402.47;5066688;28;20048;-74
2023/05/08 08:28:09;;;;;;;7.40;4.85;;;;;;;17.07;84.45;100403.25;5067374;28;20287;-74
2023/05/08 08:30:35;;;;;;;10.10;6.03;;;;;;;17.07;84.66;100403.25;5067483;28;20082;-75
2023/05/08 08:33:01;;;;;;;11.03;6.20;;;;;;;17.19;84.44;100405.66;5068088;28;20327;-75
2023/05/08 08:35:31;;;;;;;9.40;5.25;;;;;;;17.20;84.21;100402.59;5066623;28;20284;-75
2023/05/08 08:37:56;;;;;;;11.10;5.68;;;;;;;17.25;84.33;100397.03;5067959;28;20028;-75
2023/05/08 08:40:22;;;;;;;9.48;5.22;;;;;;;17.30;84.06;100398.91;5066749;28;20033;-75
2023/05/08 08:42:47;;;;;;;10.02;5.53;;;;;;;17.30;83.75;100401.66;5067609;28;20087;-75
2023/05/08 08:45:12;;;;;;;10.07;5.45;;;;;;;17.30;83.90;100398.91;5066769;28;21185;-74
2023/05/08 08:47:40;;;;;;;10.20;5.18;;;;;;;17.27;83.64;100399.47;5067520;28;20055;-75
2023/05/08 08:50:07;;;;;;;9.73;4.25;;;;;;;17.25;83.79;100402.53;5067065;28;20039;-75
2023/05/08 08:52:42;;;;;;;9.45;5.53;;;;;;;17.26;83.24;100400.59;5067235;28;20139;-75
2023/05/08 08:55:13;;;;;;;10.70;5.80;;;;;;;17.33;83.17;100400.25;5067237;28;20039;-75
2023/05/08 08:57:47;;;;;;;12.35;4.57;;;;;;;17.42;83.11;100403.16;5067041;28;20037;-75
2023/05/08 09:00:13;;;;;;;8.23;4.78;;;;;;;17.42;83.09;100403.16;5066768;28;20087;-74
2023/05/08 09:02:39;;;;;;;8.02;4.88;;;;;;;17.43;83.32;100396.53;5066943;28;20028;-74
2023/05/08 09:05:05;;;;;;;7.57;4.75;;;;;;;17.48;82.89;100402.81;5067216;28;20536;-75
2023/05/08 09:07:31;;;;;;;8.88;4.75;;;;;;;17.50;83.18;100402.50;5067621;28;20561;-75
2023/05/08 09:09:56;;;;;;;10.02;5.43;;;;;;;17.45;83.06;100397.84;5067209;28;20027;-74
2023/05/08 09:12:21;;;;;;;6.78;4.03;;;;;;;17.56;82.66;100398.56;5066901;28;20596;-74
2023/05/08 09:14:47;;;;;;;7.73;4.33;;;;;;;17.59;82.13;100403.47;5066238;28;20071;-75
2023/05/08 09:17:13;;;;;;;9.95;4.47;;;;;;;17.60;82.34;100402.34;5067483;28;20264;-74
2023/05/08 09:19:39;;;;;;;6.85;3.97;;;;;;;17.72;81.88;100401.91;5066800;28;20101;-75
2023/05/08 09:22:06;;;;;;;6.78;3.83;;;;;;;17.84;81.55;100408.91;5065995;28;20405;-75
2023/05/08 09:24:53;;;;;;;7.85;4.20;;;;;;;17.96;81.26;100408.44;5066421;28;20051;-75
2023/05/08 09:27:22;;;;;;;6.38;4.00;;;;;;;18.03;80.80;100408.91;5066227;28;20043;-75
2023/05/08 09:30:07;;;;;;;6.60;3.90;;;;;;;18.12;80.25;100413.75;5066901;28;20120;-74
2023/05/08 09:32:34;;;;;;;7.78;3.15;;;;;;;18.18;79.77;100413.38;5066331;28;20040;-75
2023/05/08 09:35:00;;;;;;;8.05;3.35;;;;;;;18.26;79.54;100403.63;5066119;28;20037;-75
2023/05/08 09:37:27;;;;;;;6.95;4.00;;;;;;;18.27;79.46;100405.25;5066820;28;20138;-75
2023/05/08 09:39:53;;;;;;;6.75;4.03;;;;;;;18.34;78.93;100407.63;5066365;28;20082;-74
2023/05/08 09:42:19;;;;;;;7.28;4.10;;;;;;;18.37;78.79;100407.00;5065554;28;20579;-75
2023/05/08 09:44:52;;;;;;;7.65;3.95;;;;;;;18.45;78.60;100404.69;5065677;28;20123;-75
2023/05/08 09:47:22;;;;;;;8.15;5.05;;;;;;;18.54;78.29;100402.88;5066459;28;20032;-75
2023/05/08 09:49:59;;;;;;;7.90;4.63;;;;;;;18.48;78.06;100406.84;5065729;28;20110;-75
2023/05/08 09:52:25;;;;;;;7.00;3.97;;;;;;;18.34;78.86;100409.56;5066177;28;20028;-75
2023/05/08 09:55:04;;;;;;;5.28;2.78;;;;;;;18.31;77.98;100406.28;5065595;28;20498;-75
2023/05/08 09:57:31;;;;;;;6.45;3.00;;;;;;;18.28;77.92;100415.19;5065865;28;20090;-74
2023/05/08 10:00:12;;;;;;;5.80;2.78;;;;;;;18.29;77.79;100416.81;5065755;28;20048;-74
2023/05/08 10:02:39;;;;;;;6.50;3.20;;;;;;;18.34;77.60;100415.09;5066392;28;20024;-74
2023/05/08 10:05:33;;;;;;;4.45;2.67;;;;;;;18.24;77.28;100411.38;5065423;28;20170;-75
2023/05/08 10:08:17;;;;;;;5.45;2.65;;;;;;;18.24;77.49;100416.91;5066412;28;20036;-74
2023/05/08 10:10:43;;;;;;;5.30;3.35;;;;;;;18.14;77.81;100420.63;5066816;28;20501;-74
2023/05/08 10:13:08;;;;;;;4.47;2.40;;;;;;;18.09;77.98;100418.75;5066498;28;20036;-75
2023/05/08 10:15:36;;;;;;;7.30;3.28;;;;;;;18.04;78.27;100421.56;5063818;28;20034;-75
2023/05/08 10:18:04;;;;;;;5.22;2.78;;;;;;;17.99;78.59;100424.41;5065138;28;20062;-74
2023/05/08 10:20:31;;;;;;;6.65;3.03;;;;;;;17.97;78.78;100429.41;5065960;28;20033;-74
2023/05/08 10:22:57;;;;;;;6.95;2.50;;;;;;;17.82;78.67;100416.66;5066237;28;20024;-74
2023/05/08 10:25:23;;;;;;;3.97;2.47;;;;;;;17.74;78.61;100416.22;5065222;28;20579;-75
2023/05/08 10:27:58;;;;;;;5.60;2.60;;;;;;;17.69;78.57;100426.50;5065207;28;20032;-74
2023/05/08 10:30:25;;;;;;;3.97;2.53;;;;;;;17.70;78.22;100419.88;5065365;28;20119;-74
2023/05/08 10:32:53;;;;;;;5.35;2.17;;;;;;;17.65;78.86;100414.44;5065495;28;20036;-75
2023/05/08 10:35:19;;;;;;;5.82;2.70;;;;;;;17.66;78.86;100418.81;5064939;28;20036;-74
2023/05/08 10:37:47;;;;;;;4.25;2.65;;;;;;;17.61;78.94;100419.72;5064417;28;20032;-74
2023/05/08 10:40:14;;;;;;;6.25;2.97;;;;;;;17.68;78.78;100422.09;5065019;28;20028;-75
2023/05/08 10:42:40;;;;;;;6.47;2.80;;;;;;;17.69;78.61;100412.72;5065666;28;20032;-75
2023/05/08 10:45:06;;;;;;;7.35;3.47;;;;;;;17.68;78.91;100411.91;5064613;28;20047;-75
2023/05/08 10:47:38;;;;;;;5.15;3.00;;;;;;;17.76;78.58;100409.59;5064960;28;20033;-74
2023/05/08 10:50:15;;;;;;;6.20;2.70;;;;;;;17.78;78.49;100401.81;5064433;28;20035;-74
2023/05/08 10:52:41;;;;;;;6.30;2.50;;;;;;;17.78;79.19;100410.09;5065441;28;20036;-74
2023/05/08 10:55:22;;;;;;;5.27;3.33;;;;;;;17.75;78.79;100406.03;5064601;28;20055;-74
2023/05/08 10:58:11;;;;;;;5.43;3.15;;;;;;;17.85;78.16;100399.53;5064820;28;20033;-75
2023/05/08 11:00:51;;;;;;;6.75;3.38;;;;;;;17.92;78.29;100410.19;5065101;28;20028;-74
2023/05/08 11:03:23;;;;;;;6.20;3.13;;;;;;;18.06;78.02;100399.22;5065204;28;20123;-75
2023/05/08 11:05:50;;;;;;;7.45;3.45;;;;;;;18.07;78.05;100396.16;5064703;28;20059;-75
2023/05/08 11:08:23;;;;;;;4.70;2.63;;;;;;;18.13;77.56;100399.66;5064514;28;20028;-74
2023/05/08 11:10:59;;;;;;;5.22;3.10;;;;;;;18.24;76.98;100394.00;5065732;28;20149;-75
2023/05/08 11:13:30;;;;;;;5.25;2.83;;;;;;;18.31;76.36;100384.22;5064779;28;20032;-75
2023/05/08 11:15:55;;;;;;;6.70;2.70;;;;;;;18.35;76.23;100389.09;5064924;28;20115;-74
2023/05/08 11:18:21;;;;;;;7.63;2.92;;;;;;;18.47;75.92;100392.22;5065196;28;20038;-74
2023/05/08 11:21:05;;;;;;;6.72;2.95;;;;;;;18.54;75.60;100391.81;5064472;28;20032;-74
2023/05/08 11:23:31;;;;;;;;;;;;;;;18.59;74.76;100383.44;5064273;28;20037;-75